Time;durP1;ratioP1;P1;durP2;ratioP2;P2;SDS_P1;SDS_P2;PMS_P1;PMS_P2;Temp;Humidity;BMP_temperature;BMP_pressure;BME280_temperature;BME280_humidity;BME280_pressure;Samples;Min_cycle;Max_cycle;Signal;HPM_P1;HPM_P2
2021/04/21 00:00:18;;;;;;;6.67;5.60;;;;;;;6.36;90.53;98556.44;1800914;79;21014;-59
2021/04/21 00:02:48;;;;;;;6.17;5.58;;;;;;;6.31;90.90;98560.87;1781732;79;21148;-57
2021/04/21 00:05:16;;;;;;;6.25;5.12;;;;;;;6.31;91.24;98556.11;1799999;79;21140;-58
2021/04/21 00:07:44;;;;;;;4.87;4.33;;;;;;;6.29;91.55;98552.30;1783104;79;21346;-57
2021/04/21 00:10:13;;;;;;;6.50;4.67;;;;;;;6.29;91.80;98553.62;1791445;79;21009;-58
2021/04/21 00:12:40;;;;;;;5.17;4.67;;;;;;;6.30;91.95;98554.45;1795291;79;21135;-56
2021/04/21 00:15:12;;;;;;;6.03;4.80;;;;;;;6.32;92.13;98550.66;1775486;79;21071;-59
2021/04/21 00:17:43;;;;;;;6.53;4.37;;;;;;;6.35;92.23;98556.93;1793661;79;21025;-57
2021/04/21 00:20:12;;;;;;;5.05;4.58;;;;;;;6.38;92.37;98553.13;1775155;79;21367;-59
2021/04/21 00:22:39;;;;;;;5.58;4.90;;;;;;;6.42;92.39;98551.80;1789524;79;20896;-57
2021/04/21 00:25:09;;;;;;;6.15;4.15;;;;;;;6.44;92.35;98550.64;1778538;79;20977;-58
2021/04/21 00:27:37;;;;;;;5.05;4.58;;;;;;;6.45;92.19;98552.78;1773949;79;20986;-56
2021/04/21 00:30:08;;;;;;;5.15;4.65;;;;;;;6.45;92.23;98551.47;1778005;79;20974;-58
2021/04/21 00:32:47;;;;;;;5.37;4.80;;;;;;;6.46;92.30;98553.96;1790972;79;22262;-56
2021/04/21 00:35:20;;;;;;;6.62;5.10;;;;;;;6.45;92.20;98549.66;1782799;79;20950;-56
2021/04/21 00:37:48;;;;;;;6.55;5.58;;;;;;;6.48;92.27;98550.65;1789197;79;21146;-56
2021/04/21 00:40:22;;;;;;;5.35;4.85;;;;;;;6.53;92.26;98551.46;1796055;79;21019;-58
2021/04/21 00:42:57;;;;;;;6.17;5.58;;;;;;;6.58;92.16;98557.06;1799249;79;20922;-57
2021/04/21 00:45:38;;;;;;;6.33;5.72;;;;;;;6.62;91.87;98555.76;1797190;79;21359;-56
2021/04/21 00:48:19;;;;;;;6.37;5.78;;;;;;;6.64;91.53;98557.73;1771937;79;21997;-56
2021/04/21 00:50:56;;;;;;;6.83;6.15;;;;;;;6.61;91.28;98556.25;1788629;79;21212;-57
2021/04/21 00:53:29;;;;;;;6.20;5.70;;;;;;;6.60;91.28;98560.36;1773859;79;21132;-57
2021/04/21 00:56:06;;;;;;;7.50;6.80;;;;;;;6.58;91.17;98554.42;1786933;79;21193;-57
2021/04/21 00:58:49;;;;;;;;;;;;;;;6.55;91.03;98551.63;1766785;80;22100;-57
2021/04/21 01:01:16;;;;;;;7.45;6.78;;;;;;;6.53;91.13;98551.46;1757246;79;20160;-59
2021/04/21 01:03:44;;;;;;;7.70;6.70;;;;;;;6.50;91.15;98546.50;1758926;79;21562;-58
2021/04/21 01:06:19;;;;;;;7.72;6.65;;;;;;;6.47;91.25;98548.16;1772133;79;20882;-58
2021/04/21 01:08:58;;;;;;;7.17;6.47;;;;;;;6.44;91.37;98549.83;1753651;81;20918;-58
2021/04/21 01:11:37;;;;;;;6.92;6.22;;;;;;;6.38;91.47;98548.68;1771899;79;22269;-57
2021/04/21 01:14:22;;;;;;;7.30;6.60;;;;;;;6.35;91.74;98550.81;1771834;79;21015;-58
2021/04/21 01:16:59;;;;;;;6.95;6.30;;;;;;;6.33;91.96;98547.52;1791003;79;20892;-55
2021/04/21 01:20:05;;;;;;;6.85;5.92;;;;;;;6.32;92.09;98547.18;1763915;79;20938;-57
2021/04/21 01:23:09;;;;;;;6.87;6.17;;;;;;;6.29;92.24;98548.83;1771941;79;21011;-58
2021/04/21 01:25:57;;;;;;;7.05;6.35;;;;;;;6.28;92.57;98547.20;1773127;79;21472;-59
2021/04/21 01:28:25;;;;;;;6.90;6.30;;;;;;;6.23;92.74;98547.17;1788220;79;21014;-59
2021/04/21 01:30:52;;;;;;;7.70;6.10;;;;;;;6.23;92.83;98545.06;1742770;81;21084;-57
2021/04/21 01:33:21;;;;;;;6.85;6.17;;;;;;;6.23;92.90;98549.82;1769131;79;20918;-57
2021/04/21 01:35:59;;;;;;;6.55;5.97;;;;;;;6.23;92.98;98545.86;1784983;79;21029;-57
2021/04/21 01:38:27;;;;;;;6.45;5.85;;;;;;;6.22;92.99;98555.28;1753000;79;21225;-59
2021/04/21 01:41:02;;;;;;;6.35;5.78;;;;;;;6.19;93.10;98555.11;1774406;79;21168;-58
2021/04/21 01:43:37;;;;;;;7.90;5.70;;;;;;;6.18;93.29;98545.53;1780346;79;21133;-55
2021/04/21 01:46:05;;;;;;;7.28;6.58;;;;;;;6.19;93.43;98555.11;1777194;79;20990;-58
2021/04/21 01:48:34;;;;;;;6.37;5.78;;;;;;;6.23;93.52;98552.16;1792802;79;21091;-59
2021/04/21 01:51:10;;;;;;;7.05;6.45;;;;;;;6.26;93.47;98554.47;1773854;79;21365;-57
2021/04/21 01:53:45;;;;;;;10.05;6.08;;;;;;;6.28;93.42;98549.84;1763870;79;23955;-57
2021/04/21 01:56:17;;;;;;;5.97;5.40;;;;;;;6.29;93.30;98553.62;1781923;79;20970;-57
2021/04/21 01:58:53;;;;;;;5.72;5.12;;;;;;;6.33;93.38;98552.31;1802282;79;21132;-57
2021/04/21 02:01:42;;;;;;;7.55;6.72;;;;;;;6.37;93.17;98555.43;1776497;79;21176;-56
2021/04/21 02:04:27;;;;;;;6.95;6.30;;;;;;;6.36;92.97;98555.92;1773820;79;21466;-59
2021/04/21 02:07:29;;;;;;;7.20;6.50;;;;;;;6.34;92.96;98551.80;1779706;79;21167;-57
2021/04/21 02:10:14;;;;;;;6.90;6.20;;;;;;;6.33;92.96;98554.13;1781402;79;20950;-60
2021/04/21 02:13:08;;;;;;;7.33;6.22;;;;;;;6.33;93.05;98555.45;1784090;79;20997;-57
2021/04/21 02:15:49;;;;;;;7.08;5.42;;;;;;;6.32;92.96;98556.42;1785901;79;21085;-58
2021/04/21 02:18:39;;;;;;;6.17;5.58;;;;;;;6.34;92.97;98551.30;1777724;79;21363;-56
2021/04/21 02:21:41;;;;;;;5.80;5.17;;;;;;;6.35;92.92;98550.33;1773792;79;21084;-57
2021/04/21 02:24:35;;;;;;;5.83;4.67;;;;;;;6.38;92.80;98551.32;1774551;79;21147;-60
2021/04/21 02:27:25;;;;;;;6.28;5.67;;;;;;;6.38;92.60;98550.48;1781406;79;21529;-58
2021/04/21 02:30:09;;;;;;;5.33;4.83;;;;;;;6.33;92.33;98549.67;1804416;79;21101;-57
2021/04/21 02:33:22;;;;;;;5.12;4.67;;;;;;;6.34;92.50;98549.16;1790414;79;21407;-58
2021/04/21 02:35:55;;;;;;;6.12;5.00;;;;;;;6.35;92.23;98545.53;1776842;79;21096;-57
2021/04/21 02:38:54;;;;;;;5.90;5.40;;;;;;;6.34;92.16;98549.16;1744016;79;21179;-57
2021/04/21 02:41:59;;;;;;;5.58;5.17;;;;;;;6.33;92.10;98543.07;1773767;79;21135;-55
2021/04/21 02:44:38;;;;;;;7.37;4.53;;;;;;;6.32;91.96;98544.54;1765121;79;21144;-60
2021/04/21 02:47:17;;;;;;;5.55;4.40;;;;;;;6.30;91.93;98542.56;1790080;79;21344;-56
2021/04/21 02:50:07;;;;;;;5.60;5.10;;;;;;;6.29;91.94;98544.38;1769804;79;20973;-57
2021/04/21 02:52:40;;;;;;;5.50;5.00;;;;;;;6.26;91.82;98546.55;1771436;79;21130;-59
2021/04/21 02:56:05;;;;;;;5.97;5.28;;;;;;;6.23;91.86;98548.19;1778008;79;21600;-57
2021/04/21 02:58:56;;;;;;;5.12;4.70;;;;;;;6.19;91.98;98549.83;1747132;79;21045;-57
2021/04/21 03:01:45;;;;;;;5.37;4.55;;;;;;;6.18;92.06;98549.98;1764222;79;21325;-57
2021/04/21 03:04:18;;;;;;;4.80;4.37;;;;;;;6.18;92.19;98556.58;1786012;79;20988;-58
2021/04/21 03:06:49;;;;;;;5.50;4.22;;;;;;;6.18;92.20;98550.81;1777174;79;21139;-56
2021/04/21 03:09:40;;;;;;;4.50;4.10;;;;;;;6.18;92.08;98550.81;1747160;79;21056;-56
2021/04/21 03:12:08;;;;;;;5.65;5.03;;;;;;;6.18;92.17;98552.13;1756002;79;21151;-55
2021/04/21 03:14:37;;;;;;;6.00;5.50;;;;;;;6.17;92.20;98554.46;1747117;79;21226;-57
2021/04/21 03:17:12;;;;;;;6.58;5.97;;;;;;;6.17;92.25;98554.46;1750714;79;21131;-58
2021/04/21 03:19:43;;;;;;;6.35;5.72;;;;;;;6.18;92.25;98558.73;1752219;79;21116;-58
2021/04/21 03:22:14;;;;;;;5.15;4.75;;;;;;;6.20;92.29;98559.91;1777059;79;21572;-59
2021/04/21 03:24:52;;;;;;;4.85;4.53;;;;;;;6.23;92.23;98561.39;1736672;79;21160;-58
2021/04/21 03:27:20;;;;;;;5.30;4.80;;;;;;;6.25;92.13;98563.37;1758712;79;21312;-57
2021/04/21 03:29:48;;;;;;;6.10;5.60;;;;;;;6.27;92.00;98566.66;1763928;79;20986;-60
2021/04/21 03:32:25;;;;;;;8.18;6.72;;;;;;;6.30;91.94;98568.98;1775974;79;21166;-57
2021/04/21 03:34:53;;;;;;;6.00;5.45;;;;;;;6.31;91.93;98564.04;1753703;79;21118;-58
2021/04/21 03:37:31;;;;;;;5.85;5.15;;;;;;;6.34;91.86;98564.52;1755483;79;21045;-58
2021/04/21 03:39:59;;;;;;;6.05;5.45;;;;;;;6.35;91.81;98567.50;1754312;79;21216;-59
2021/04/21 03:42:26;;;;;;;6.65;6.05;;;;;;;6.36;91.81;98565.69;1753200;81;21149;-58
2021/04/21 03:44:54;;;;;;;6.08;5.47;;;;;;;6.41;91.74;98572.62;1755778;79;21001;-57
2021/04/21 03:47:23;;;;;;;7.47;6.60;;;;;;;6.44;91.62;98573.61;1783286;79;21119;-58
2021/04/21 03:49:51;;;;;;;7.05;6.35;;;;;;;6.45;91.46;98577.40;1766950;79;21196;-57
2021/04/21 03:52:19;;;;;;;7.72;5.90;;;;;;;6.46;91.37;98580.38;1782186;79;21383;-58
2021/04/21 03:54:46;;;;;;;6.65;5.08;;;;;;;6.49;91.40;98583.98;1772368;78;21638;-57
2021/04/21 03:57:14;;;;;;;5.72;5.22;;;;;;;6.52;91.30;98583.66;1792736;79;21125;-57
2021/04/21 03:59:41;;;;;;;5.95;5.35;;;;;;;6.54;91.04;98590.12;1724728;82;21140;-57
2021/04/21 04:02:09;;;;;;;6.08;5.47;;;;;;;6.54;90.90;98592.27;1724312;82;21134;-58
2021/04/21 04:04:58;;;;;;;7.55;6.53;;;;;;;6.53;90.65;98587.13;1717928;82;21551;-58
2021/04/21 04:07:28;;;;;;;5.72;5.22;;;;;;;6.50;90.66;98586.97;1709986;83;20946;-58
2021/04/21 04:09:57;;;;;;;6.58;5.92;;;;;;;6.48;90.70;98586.81;1713136;82;21085;-57
2021/04/21 04:12:25;;;;;;;5.83;5.12;;;;;;;6.48;90.77;98594.25;1698982;83;21612;-57
2021/04/21 04:14:54;;;;;;;8.98;5.70;;;;;;;6.49;90.87;98596.40;1665790;85;21191;-59
2021/04/21 04:17:22;;;;;;;8.73;6.15;;;;;;;6.51;90.92;98595.73;1700830;83;21444;-57
2021/04/21 04:19:50;;;;;;;7.87;6.20;;;;;;;6.58;90.99;98600.18;1695777;83;21382;-58
2021/04/21 04:22:19;;;;;;;10.40;9.28;;;;;;;6.64;90.78;98607.95;1715564;83;21077;-57
2021/04/21 04:24:53;;;;;;;8.08;5.58;;;;;;;6.67;90.44;98602.33;1641295;84;21002;-57
2021/04/21 04:27:27;;;;;;;6.20;5.60;;;;;;;6.66;90.27;98602.82;1688172;84;21631;-57
2021/04/21 04:29:57;;;;;;;6.20;5.60;;;;;;;6.67;90.13;98603.66;1695548;83;21404;-59
2021/04/21 04:32:26;;;;;;;6.65;5.58;;;;;;;6.68;89.98;98606.61;1697595;83;21085;-60
2021/04/21 04:34:56;;;;;;;5.75;5.10;;;;;;;6.68;90.02;98602.64;1639744;84;21185;-57
2021/04/21 04:37:30;;;;;;;7.55;6.00;;;;;;;6.71;90.07;98601.83;1673839;85;21189;-61
2021/04/21 04:39:57;;;;;;;5.70;5.08;;;;;;;6.76;89.91;98601.31;1713047;83;21201;-57
2021/04/21 04:42:27;;;;;;;5.97;5.35;;;;;;;6.80;89.75;98597.36;1714885;82;22123;-60
2021/04/21 04:44:54;;;;;;;5.62;5.12;;;;;;;6.84;89.60;98595.53;1709663;83;21184;-57
2021/04/21 04:47:32;;;;;;;5.85;5.35;;;;;;;6.90;89.33;98597.17;1693649;83;21152;-58
2021/04/21 04:50:10;;;;;;;6.62;6.03;;;;;;;6.90;88.98;98598.00;1686722;83;21132;-57
2021/04/21 04:52:39;;;;;;;6.33;5.72;;;;;;;6.92;89.03;98596.01;1702399;83;20946;-59
2021/04/21 04:55:10;;;;;;;7.45;6.20;;;;;;;6.95;88.80;98595.67;1706027;82;21211;-57
2021/04/21 04:57:40;;;;;;;7.08;6.28;;;;;;;6.97;88.75;98596.33;1716994;82;21096;-60
2021/04/21 05:00:10;;;;;;;7.45;6.78;;;;;;;7.03;88.73;98596.98;1674692;83;21072;-57
2021/04/21 05:02:41;;;;;;;7.30;6.08;;;;;;;7.09;88.46;98600.77;1696421;82;21069;-60
2021/04/21 05:05:11;;;;;;;7.47;6.67;;;;;;;7.15;88.18;98598.75;1709016;82;21069;-59
2021/04/21 05:07:44;;;;;;;8.95;6.20;;;;;;;7.17;88.02;98600.23;1685543;84;21310;-61
2021/04/21 05:10:29;;;;;;;10.53;7.40;;;;;;;7.20;87.92;98602.55;1680925;84;21073;-63
2021/04/21 05:12:58;;;;;;;8.58;7.67;;;;;;;7.25;87.96;98602.86;1675328;84;21587;-59
2021/04/21 05:15:45;;;;;;;9.65;8.75;;;;;;;7.34;87.81;98603.66;1696482;84;21180;-60
2021/04/21 05:18:40;;;;;;;9.00;8.20;;;;;;;7.41;87.37;98601.97;1661303;83;21168;-58
2021/04/21 05:22:01;;;;;;;8.80;7.97;;;;;;;7.51;87.06;98607.09;1674502;84;21458;-59
2021/04/21 05:25:26;;;;;;;9.25;7.75;;;;;;;7.64;86.69;98613.98;1656614;85;21113;-58
2021/04/21 05:28:17;;;;;;;9.53;8.45;;;;;;;7.81;86.37;98608.91;1634738;87;21192;-59
2021/04/21 05:31:09;;;;;;;8.88;7.97;;;;;;;7.95;85.70;98614.80;1656377;85;21078;-59
2021/04/21 05:34:20;;;;;;;9.45;8.55;;;;;;;8.03;85.18;98616.05;1654577;85;21553;-59
2021/04/21 05:37:33;;;;;;;12.03;8.53;;;;;;;8.13;84.86;98618.01;1641319;87;21280;-59
2021/04/21 05:40:50;;;;;;;8.30;7.55;;;;;;;8.24;84.56;98612.28;1660673;85;21639;-59
2021/04/21 05:44:03;;;;;;;9.93;7.75;;;;;;;8.38;84.13;98615.53;1656637;85;21161;-60
2021/04/21 05:46:58;;;;;;;8.98;7.20;;;;;;;8.51;83.35;98614.44;1656594;85;21199;-59
2021/04/21 05:50:15;;;;;;;8.63;7.75;;;;;;;8.64;82.62;98613.34;1656675;85;21097;-59
2021/04/21 05:53:15;;;;;;;9.43;8.10;;;;;;;8.82;82.48;98614.83;1664096;85;23683;-59
2021/04/21 05:56:10;;;;;;;9.60;7.83;;;;;;;9.12;82.28;98620.02;1676676;84;21664;-59
2021/04/21 05:59:12;;;;;;;9.08;8.18;;;;;;;9.46;80.90;98616.83;1693781;84;21113;-59
2021/04/21 06:01:42;;;;;;;9.75;8.40;;;;;;;9.76;79.58;98609.14;1696578;84;21195;-59
2021/04/21 06:04:10;;;;;;;9.45;8.40;;;;;;;10.07;77.84;98606.72;1665811;84;21611;-58
2021/04/21 06:06:37;;;;;;;9.08;8.15;;;;;;;10.34;77.11;98612.67;1696591;83;21212;-59
2021/04/21 06:09:09;;;;;;;9.78;7.78;;;;;;;10.73;76.50;98605.06;1685759;85;21140;-59
2021/04/21 06:11:37;;;;;;;7.92;7.15;;;;;;;11.22;75.17;98608.99;1715502;83;21108;-59
2021/04/21 06:14:06;;;;;;;7.05;6.40;;;;;;;11.81;73.84;98604.00;1658126;85;21150;-59
2021/04/21 06:16:36;;;;;;;7.37;6.22;;;;;;;12.45;72.64;98600.39;1716242;82;21145;-58
2021/04/21 06:19:07;;;;;;;8.00;6.78;;;;;;;13.05;69.25;98596.71;1658067;86;21332;-58
2021/04/21 06:21:39;;;;;;;6.78;6.05;;;;;;;13.48;67.23;98593.88;1665701;85;21197;-59
2021/04/21 06:24:24;;;;;;;6.85;6.20;;;;;;;13.88;65.08;98591.06;1715534;83;21543;-61
2021/04/21 06:27:10;;;;;;;7.33;6.60;;;;;;;14.26;64.21;98592.42;1715780;82;21021;-59
2021/04/21 06:29:40;;;;;;;9.13;8.23;;;;;;;14.71;61.95;98584.61;1658241;85;21150;-59
2021/04/21 06:32:13;;;;;;;9.58;8.33;;;;;;;14.95;60.48;98576.28;1694655;83;21199;-58
2021/04/21 06:34:42;;;;;;;8.28;7.58;;;;;;;14.96;59.64;98584.63;1658072;86;21160;-58
2021/04/21 06:37:09;;;;;;;9.05;7.97;;;;;;;14.91;59.16;98575.09;1685736;83;21227;-59
2021/04/21 06:39:37;;;;;;;8.48;7.10;;;;;;;14.84;58.96;98575.95;1715483;83;21097;-59
2021/04/21 06:42:06;;;;;;;8.43;6.83;;;;;;;14.79;59.19;98577.14;1715463;83;21141;-59
2021/04/21 06:44:47;;;;;;;7.10;6.42;;;;;;;14.80;59.08;98574.77;1635184;85;21433;-58
2021/04/21 06:47:23;;;;;;;9.53;6.15;;;;;;;14.89;59.17;98579.31;1716660;83;21160;-61
2021/04/21 06:50:04;;;;;;;6.92;6.22;;;;;;;15.21;58.42;98576.86;1709794;83;21002;-59
2021/04/21 06:52:36;;;;;;;7.25;6.20;;;;;;;15.63;57.64;98573.86;1710439;83;21606;-57
2021/04/21 06:55:14;;;;;;;6.53;5.92;;;;;;;16.13;56.99;98573.13;1658076;86;21168;-58
2021/04/21 06:57:42;;;;;;;8.28;6.20;;;;;;;16.50;55.65;98574.63;1685861;85;21275;-60
2021/04/21 07:00:18;;;;;;;7.60;6.83;;;;;;;16.64;54.25;98572.59;1715551;83;21638;-60
2021/04/21 07:02:51;;;;;;;7.67;6.87;;;;;;;16.59;53.14;98574.63;1715558;83;21559;-59
2021/04/21 07:05:35;;;;;;;7.47;6.60;;;;;;;16.49;53.29;98578.89;1715623;83;21096;-59
2021/04/21 07:08:13;;;;;;;8.63;6.28;;;;;;;16.59;53.34;98575.97;1715594;83;21156;-60
2021/04/21 07:10:51;;;;;;;7.12;6.42;;;;;;;16.83;53.29;98576.83;1715729;82;21190;-58
2021/04/21 07:13:45;;;;;;;6.55;5.95;;;;;;;17.25;52.98;98583.75;1658194;84;21085;-59
2021/04/21 07:16:22;;;;;;;6.47;5.78;;;;;;;17.72;51.97;98586.41;1665886;85;21157;-60
2021/04/21 07:18:56;;;;;;;6.42;5.92;;;;;;;18.13;50.95;98594.23;1685944;83;21204;-61
2021/04/21 07:21:23;;;;;;;8.10;6.85;;;;;;;18.47;49.96;98585.23;1685967;85;21144;-59
2021/04/21 07:23:53;;;;;;;10.15;7.12;;;;;;;18.85;49.39;98591.25;1715591;83;21435;-60
2021/04/21 07:26:31;;;;;;;8.33;5.50;;;;;;;19.30;48.80;98584.41;1715640;83;21033;-62
2021/04/21 07:28:59;;;;;;;6.15;5.58;;;;;;;19.82;46.57;98586.23;1715175;83;21207;-59
2021/04/21 07:31:26;;;;;;;5.97;5.47;;;;;;;20.33;44.53;98589.02;1714435;82;21195;-58
2021/04/21 07:33:55;;;;;;;8.30;5.92;;;;;;;20.55;43.56;98586.25;1654793;86;21196;-59
2021/04/21 07:36:28;;;;;;;6.95;6.35;;;;;;;20.76;42.93;98597.53;1685391;85;21397;-59
2021/04/21 07:38:59;;;;;;;7.00;6.30;;;;;;;20.88;42.47;98601.69;1695590;83;21163;-59
2021/04/21 07:41:44;;;;;;;8.18;6.97;;;;;;;20.86;42.68;98606.55;1692036;83;21540;-58
2021/04/21 07:44:34;;;;;;;7.50;6.73;;;;;;;20.91;42.07;98601.19;1698339;83;21037;-59
2021/04/21 07:47:09;;;;;;;5.97;5.47;;;;;;;20.92;42.00;98608.23;1686432;83;21157;-59
2021/04/21 07:49:55;;;;;;;7.33;6.58;;;;;;;20.71;41.65;98622.63;1700471;83;21104;-58
2021/04/21 07:52:26;;;;;;;9.80;6.25;;;;;;;20.44;42.14;98616.96;1719592;82;20977;-58
2021/04/21 07:55:18;;;;;;;7.87;6.25;;;;;;;20.18;42.50;98624.73;1715651;83;20982;-59
2021/04/21 07:58:00;;;;;;;8.28;5.80;;;;;;;20.04;42.92;98629.42;1715564;83;21088;-62
2021/04/21 08:00:30;;;;;;;6.12;4.55;;;;;;;19.88;42.98;98620.31;1658251;85;21507;-61
2021/04/21 08:02:57;;;;;;;6.10;4.60;;;;;;;19.92;42.12;98622.78;1665878;85;21391;-59
2021/04/21 08:05:25;;;;;;;4.28;3.87;;;;;;;20.10;41.59;98624.38;1715474;83;21195;-59
2021/04/21 08:08:00;;;;;;;5.12;4.12;;;;;;;20.35;41.67;98639.55;1657986;85;21562;-59
2021/04/21 08:10:34;;;;;;;4.97;4.20;;;;;;;20.56;40.21;98625.72;1718915;83;21132;-60
2021/04/21 08:13:02;;;;;;;4.37;3.98;;;;;;;20.63;39.70;98623.09;1658187;84;21176;-60
2021/04/21 08:15:33;;;;;;;6.17;4.65;;;;;;;20.68;38.88;98621.79;1685992;85;22293;-59
2021/04/21 08:18:11;;;;;;;6.25;4.97;;;;;;;20.80;39.32;98630.57;1695063;82;21689;-61
2021/04/21 08:20:51;;;;;;;7.20;4.85;;;;;;;20.90;38.90;98626.61;1658147;86;21223;-60
2021/04/21 08:23:20;;;;;;;5.92;4.62;;;;;;;20.65;38.94;98624.20;1663998;83;21156;-60
2021/04/21 08:25:49;;;;;;;6.65;5.17;;;;;;;20.37;38.99;98623.90;1701785;82;21145;-59
2021/04/21 08:28:16;;;;;;;7.05;5.12;;;;;;;19.99;39.67;98628.02;1685956;83;21354;-60
2021/04/21 08:30:59;;;;;;;7.08;5.45;;;;;;;19.68;40.19;98628.16;1704162;83;21132;-58
2021/04/21 08:33:28;;;;;;;7.37;5.62;;;;;;;19.21;40.81;98626.88;1710550;83;21084;-58
2021/04/21 08:35:55;;;;;;;9.18;6.67;;;;;;;18.42;42.90;98631.41;1715565;82;21136;-59
2021/04/21 08:38:23;;;;;;;8.40;6.05;;;;;;;18.42;42.90;98631.41;1715654;82;21160;-58
2021/04/21 08:40:50;;;;;;;12.53;5.75;;;;;;;18.18;43.19;98634.71;1658170;84;21349;-59
2021/04/21 08:43:20;;;;;;;8.98;6.97;;;;;;;17.93;43.41;98642.80;1685930;85;21116;-61
2021/04/21 08:45:47;;;;;;;8.53;5.87;;;;;;;17.69;43.36;98637.46;1686676;83;21083;-58
2021/04/21 08:48:17;;;;;;;9.18;5.92;;;;;;;17.39;43.90;98634.59;1685938;85;21069;-59
2021/04/21 08:50:45;;;;;;;6.10;5.15;;;;;;;17.15;44.53;98635.90;1719727;83;21120;-63
2021/04/21 08:53:12;;;;;;;9.18;5.83;;;;;;;17.00;44.74;98634.19;1716754;83;21353;-59
2021/04/21 08:55:41;;;;;;;7.65;5.75;;;;;;;16.84;45.01;98629.48;1658097;85;21193;-63
2021/04/21 08:58:09;;;;;;;7.30;5.70;;;;;;;16.73;45.46;98631.64;1715696;82;21100;-59
2021/04/21 09:00:39;;;;;;;6.40;5.55;;;;;;;16.71;45.85;98631.06;1715567;82;21077;-59
2021/04/21 09:03:07;;;;;;;12.60;5.30;;;;;;;16.79;45.77;98632.05;1658103;85;21123;-60
2021/04/21 09:05:35;;;;;;;10.63;6.47;;;;;;;16.92;45.88;98635.88;1701818;82;21369;-60
2021/04/21 09:08:02;;;;;;;8.78;6.35;;;;;;;17.09;45.87;98633.34;1687027;85;22057;-61
2021/04/21 09:10:30;;;;;;;6.78;5.62;;;;;;;17.21;45.71;98630.13;1720413;83;21528;-60
2021/04/21 09:12:58;;;;;;;7.65;6.37;;;;;;;17.32;45.39;98633.87;1720392;83;21144;-61
2021/04/21 09:15:25;;;;;;;13.83;6.60;;;;;;;17.33;45.68;98631.48;1720478;83;21127;-59
2021/04/21 09:17:56;;;;;;;10.65;5.85;;;;;;;17.37;45.86;98626.74;1720289;83;21379;-60
2021/04/21 09:20:25;;;;;;;9.15;6.42;;;;;;;17.49;46.12;98630.27;1691497;83;21286;-60
2021/04/21 09:23:14;;;;;;;7.55;6.10;;;;;;;17.73;45.76;98625.69;1710708;83;21152;-58
2021/04/21 09:25:37;;;;;;;5.72;5.15;;;;;;;17.87;44.56;98626.55;1717797;83;21152;-59
2021/04/21 09:28:06;;;;;;;5.65;5.15;;;;;;;18.09;43.83;98628.61;1700142;83;21116;-60
2021/04/21 09:30:39;;;;;;;8.08;5.20;;;;;;;18.40;42.51;98630.31;1720459;83;21385;-59
2021/04/21 09:33:07;;;;;;;6.42;4.53;;;;;;;18.67;41.66;98624.33;1720442;83;20930;-60
2021/04/21 09:35:41;;;;;;;11.83;5.40;;;;;;;19.02;40.88;98622.26;1641384;86;21128;-63
2021/04/21 09:38:12;;;;;;;6.70;4.85;;;;;;;19.40;39.95;98618.30;1688202;85;21093;-59
2021/04/21 09:43:34;;;;;;;5.22;4.37;;;;;;;20.12;39.13;98616.84;1811557;78;22392;-59
2021/04/21 09:46:16;;;;;;;6.20;5.55;;;;;;;20.28;38.16;98615.98;1786620;79;21350;-60
2021/04/21 09:48:45;;;;;;;9.25;5.45;;;;;;;20.45;38.54;98610.47;1796586;79;22232;-62
2021/04/21 09:51:20;;;;;;;5.78;5.30;;;;;;;20.84;37.93;98609.23;1758284;79;21000;-61
2021/04/21 09:53:50;;;;;;;7.55;5.17;;;;;;;21.05;37.30;98606.16;1779661;79;21464;-59
2021/04/21 09:56:22;;;;;;;6.90;5.67;;;;;;;21.21;37.15;98604.70;1759648;79;21562;-60
2021/04/21 09:58:53;;;;;;;7.75;5.58;;;;;;;21.37;36.59;98605.63;1758258;79;21055;-61
2021/04/21 10:01:36;;;;;;;10.00;6.37;;;;;;;21.53;36.36;98597.89;1758251;79;21348;-60
2021/04/21 10:04:14;;;;;;;5.80;5.30;;;;;;;21.68;35.40;98602.56;1758197;79;20972;-60
2021/04/21 10:07:01;;;;;;;5.70;5.20;;;;;;;21.81;34.80;98598.84;1771563;79;21011;-61
2021/04/21 10:09:36;;;;;;;5.17;4.78;;;;;;;21.94;34.51;98595.69;1768490;79;20948;-59
2021/04/21 10:12:21;;;;;;;7.00;4.65;;;;;;;21.98;34.45;98591.36;1758255;79;21506;-59
2021/04/21 10:15:02;;;;;;;5.87;4.70;;;;;;;22.12;34.41;98580.31;1794220;79;21203;-59
2021/04/21 10:17:31;;;;;;;7.83;5.83;;;;;;;22.26;33.62;98583.87;1774924;79;20949;-60
2021/04/21 10:19:58;;;;;;;5.80;5.30;;;;;;;22.23;33.18;98578.98;1794612;77;21601;-59
2021/04/21 10:22:26;;;;;;;7.58;5.25;;;;;;;22.02;33.85;98581.64;1799654;79;20925;-58
2021/04/21 10:24:54;;;;;;;7.28;5.58;;;;;;;22.01;33.71;98562.94;1786235;79;20969;-59
2021/04/21 10:27:23;;;;;;;6.00;5.50;;;;;;;21.85;33.57;98574.75;1784585;77;21199;-59
2021/04/21 10:29:50;;;;;;;8.68;6.08;;;;;;;21.43;33.92;98568.86;1786119;77;21036;-58
2021/04/21 10:32:18;;;;;;;6.92;5.42;;;;;;;20.98;34.66;98571.77;1785103;77;20993;-58
2021/04/21 10:34:47;;;;;;;6.60;5.55;;;;;;;20.70;35.68;98566.16;1777319;79;21108;-60
2021/04/21 10:37:16;;;;;;;9.20;6.12;;;;;;;20.50;36.07;98565.41;1795117;77;20985;-58
2021/04/21 10:39:46;;;;;;;7.20;5.75;;;;;;;20.39;36.37;98565.03;1792335;78;21357;-60
2021/04/21 10:42:16;;;;;;;9.78;5.53;;;;;;;20.33;36.43;98561.20;1781665;79;21559;-59
2021/04/21 10:44:45;;;;;;;5.35;4.95;;;;;;;20.28;36.67;98558.70;1768673;79;21010;-59
2021/04/21 10:47:27;;;;;;;5.58;5.08;;;;;;;20.39;37.06;98552.08;1772505;78;21638;-58
2021/04/21 10:50:03;;;;;;;8.55;6.92;;;;;;;20.52;36.68;98540.86;1778626;78;21084;-61
2021/04/21 10:52:35;;;;;;;7.62;4.72;;;;;;;20.63;35.96;98550.66;1776265;78;21613;-59
2021/04/21 10:55:12;;;;;;;4.72;4.33;;;;;;;20.63;35.33;98552.02;1759206;79;21132;-60
2021/04/21 10:58:00;;;;;;;5.87;4.78;;;;;;;20.56;35.08;98545.48;1769300;79;21708;-57
2021/04/21 11:00:37;;;;;;;7.85;4.85;;;;;;;20.37;35.27;98549.62;1777152;79;21559;-60
2021/04/21 11:03:12;;;;;;;7.87;4.60;;;;;;;20.05;35.30;98545.47;1777207;79;21033;-58
2021/04/21 11:05:46;;;;;;;5.00;4.50;;;;;;;19.80;35.84;98551.11;1765855;78;21194;-58
2021/04/21 11:08:18;;;;;;;6.10;4.40;;;;;;;19.67;35.85;98549.09;1767872;79;20994;-58
2021/04/21 11:10:55;;;;;;;4.45;3.95;;;;;;;19.57;36.42;98542.22;1765625;79;21733;-59
2021/04/21 11:13:37;;;;;;;9.33;4.30;;;;;;;19.62;36.65;98537.41;1765820;79;21017;-60
2021/04/21 11:16:14;;;;;;;5.58;4.33;;;;;;;19.61;36.28;98542.52;1766295;79;21100;-59
2021/04/21 11:18:44;;;;;;;22.50;5.72;;;;;;;19.52;36.32;98534.59;1765750;79;21355;-58
2021/04/21 11:21:13;;;;;;;6.70;4.28;;;;;;;19.41;36.59;98532.81;1743563;79;21180;-57
2021/04/21 11:24:06;;;;;;;4.70;4.00;;;;;;;19.40;37.26;98535.22;1724022;79;21618;-59
2021/04/21 11:26:39;;;;;;;4.28;3.87;;;;;;;19.40;37.26;98535.22;1765699;79;20985;-58
2021/04/21 11:29:27;;;;;;;7.12;4.17;;;;;;;19.49;36.88;98525.64;1765734;78;20906;-59
2021/04/21 11:32:03;;;;;;;5.65;3.77;;;;;;;19.67;36.98;98527.50;1768669;79;21192;-60
2021/04/21 11:34:37;;;;;;;4.60;3.90;;;;;;;19.71;35.79;98535.36;1769616;79;20993;-60
2021/04/21 11:37:18;;;;;;;6.25;3.75;;;;;;;19.65;36.23;98536.39;1771961;79;20947;-57
2021/04/21 11:39:56;;;;;;;4.35;3.45;;;;;;;19.65;35.96;98530.99;1768190;79;20871;-58
2021/04/21 11:42:36;;;;;;;4.78;4.22;;;;;;;19.61;35.35;98535.24;1766039;79;21226;-59
2021/04/21 11:45:25;;;;;;;5.05;4.55;;;;;;;19.45;34.96;98534.75;1779866;79;21330;-58
2021/04/21 11:48:07;;;;;;;4.37;3.98;;;;;;;19.04;35.81;98537.92;1783981;79;21006;-58
2021/04/21 11:50:37;;;;;;;15.13;5.55;;;;;;;18.71;37.18;98530.69;1769682;79;20927;-61
2021/04/21 11:53:14;;;;;;;8.38;4.37;;;;;;;18.67;37.91;98525.48;1765672;79;21065;-58
2021/04/21 11:55:54;;;;;;;5.08;4.58;;;;;;;18.67;38.09;98517.41;1772284;79;21559;-58
2021/04/21 11:58:29;;;;;;;5.92;4.00;;;;;;;18.56;37.52;98522.89;1785223;79;21431;-62
2021/04/21 12:01:11;;;;;;;7.17;3.80;;;;;;;18.39;37.92;98522.83;1790753;79;21528;-57
2021/04/21 12:03:45;;;;;;;6.90;4.40;;;;;;;18.32;37.83;98518.14;1774688;78;21656;-60
2021/04/21 12:06:16;;;;;;;12.07;3.65;;;;;;;18.31;37.66;98527.27;1770055;78;28700;-58
2021/04/21 12:08:51;;;;;;;11.95;4.40;;;;;;;18.24;37.77;98527.43;1780727;78;21403;-58
2021/04/21 12:11:33;;;;;;;7.33;4.40;;;;;;;18.15;37.81;98532.91;1787726;79;21430;-60
2021/04/21 12:13:58;;;;;;;9.75;4.30;;;;;;;18.03;38.14;98536.70;1793778;79;21045;-59
2021/04/21 12:16:28;;;;;;;6.05;4.47;;;;;;;17.92;38.17;98536.22;1768640;78;20966;-59
2021/04/21 12:18:58;;;;;;;6.37;5.00;;;;;;;17.77;38.82;98538.91;1778834;78;21622;-58
2021/04/21 12:21:36;;;;;;;4.50;4.10;;;;;;;17.57;40.01;98542.52;1772095;78;21204;-59